sensor_id;sensor_type;location;lat;lon;timestamp;pressure;altitude;pressure_sealevel;temperature;humidity
45813;BME280;31519;45.408;10.962;2023-02-19T00:00:00;101657.56;;;10.44;94.42
45813;BME280;31519;45.408;10.962;2023-02-19T00:02:28;101652.25;;;10.39;94.82
45813;BME280;31519;45.408;10.962;2023-02-19T00:04:56;101657.75;;;10.58;93.79
45813;BME280;31519;45.408;10.962;2023-02-19T00:07:25;101651.44;;;10.39;94.94
45813;BME280;31519;45.408;10.962;2023-02-19T00:09:53;101657.97;;;10.66;93.63
45813;BME280;31519;45.408;10.962;2023-02-19T00:12:21;101656.03;;;10.23;94.82
45813;BME280;31519;45.408;10.962;2023-02-19T00:14:49;101656.59;;;10.20;95.38
45813;BME280;31519;45.408;10.962;2023-02-19T00:17:17;101656.34;;;10.16;95.73
45813;BME280;31519;45.408;10.962;2023-02-19T00:19:46;101651.28;;;10.20;95.65
45813;BME280;31519;45.408;10.962;2023-02-19T00:22:14;101650.13;;;10.31;95.23
45813;BME280;31519;45.408;10.962;2023-02-19T00:24:42;101644.59;;;10.22;95.61
45813;BME280;31519;45.408;10.962;2023-02-19T00:27:11;101640.78;;;10.39;94.94
45813;BME280;31519;45.408;10.962;2023-02-19T00:29:38;101644.78;;;10.36;94.19
45813;BME280;31519;45.408;10.962;2023-02-19T00:32:07;101637.41;;;10.18;95.41
45813;BME280;31519;45.408;10.962;2023-02-19T00:34:35;101640.59;;;10.30;95.11
45813;BME280;31519;45.408;10.962;2023-02-19T00:37:03;101647.22;;;10.28;95.00
45813;BME280;31519;45.408;10.962;2023-02-19T00:39:31;101645.41;;;10.18;95.90
45813;BME280;31519;45.408;10.962;2023-02-19T00:42:00;101645.59;;;10.37;95.71
45813;BME280;31519;45.408;10.962;2023-02-19T00:44:28;101642.16;;;10.31;95.72
45813;BME280;31519;45.408;10.962;2023-02-19T00:46:56;101644.59;;;10.22;95.67
45813;BME280;31519;45.408;10.962;2023-02-19T00:49:24;101643.53;;;10.23;96.14
45813;BME280;31519;45.408;10.962;2023-02-19T00:51:52;101641.34;;;10.36;94.96
45813;BME280;31519;45.408;10.962;2023-02-19T00:54:20;101635.28;;;10.25;95.54
45813;BME280;31519;45.408;10.962;2023-02-19T00:56:52;101639.94;;;10.48;94.61
45813;BME280;31519;45.408;10.962;2023-02-19T00:59:20;101637.16;;;10.09;96.37
45813;BME280;31519;45.408;10.962;2023-02-19T01:01:48;101630.25;;;10.08;96.74
45813;BME280;31519;45.408;10.962;2023-02-19T01:04:17;101622.25;;;10.08;96.84
45813;BME280;31519;45.408;10.962;2023-02-19T01:06:45;101624.09;;;10.13;96.81
45813;BME280;31519;45.408;10.962;2023-02-19T01:09:15;101630.56;;;10.02;97.17
45813;BME280;31519;45.408;10.962;2023-02-19T01:11:43;101626.84;;;9.98;97.46
45813;BME280;31519;45.408;10.962;2023-02-19T01:14:11;101624.97;;;10.03;97.28
45813;BME280;31519;45.408;10.962;2023-02-19T01:16:40;101627.53;;;10.29;97.08
45813;BME280;31519;45.408;10.962;2023-02-19T01:19:08;101627.56;;;10.18;96.65
45813;BME280;31519;45.408;10.962;2023-02-19T01:21:36;101624.56;;;10.35;96.33
45813;BME280;31519;45.408;10.962;2023-02-19T01:24:04;101614.38;;;10.47;94.72
45813;BME280;31519;45.408;10.962;2023-02-19T01:26:32;101616.81;;;10.44;95.21
45813;BME280;31519;45.408;10.962;2023-02-19T01:29:02;101607.09;;;10.09;96.56
45813;BME280;31519;45.408;10.962;2023-02-19T01:31:31;101616.31;;;10.32;95.80
45813;BME280;31519;45.408;10.962;2023-02-19T01:34:03;101616.09;;;10.23;95.17
45813;BME280;31519;45.408;10.962;2023-02-19T01:36:32;101619.06;;;10.16;96.61
45813;BME280;31519;45.408;10.962;2023-02-19T01:39:01;101621.66;;;10.32;95.74
45813;BME280;31519;45.408;10.962;2023-02-19T01:41:35;101618.84;;;10.03;96.55
45813;BME280;31519;45.408;10.962;2023-02-19T01:44:07;101613.13;;;9.55;99.70
45813;BME280;31519;45.408;10.962;2023-02-19T01:46:54;101603.47;;;9.85;98.49
45813;BME280;31519;45.408;10.962;2023-02-19T01:49:39;101599.44;;;9.92;97.59
45813;BME280;31519;45.408;10.962;2023-02-19T01:52:22;101591.09;;;10.09;97.41
45813;BME280;31519;45.408;10.962;2023-02-19T01:54:55;101592.47;;;10.01;97.38
45813;BME280;31519;45.408;10.962;2023-02-19T01:57:32;101587.44;;;9.95;98.11
45813;BME280;31519;45.408;10.962;2023-02-19T02:00:18;101585.31;;;10.02;97.59
45813;BME280;31519;45.408;10.962;2023-02-19T02:02:50;101579.63;;;10.23;96.98
45813;BME280;31519;45.408;10.962;2023-02-19T02:08:11;101570.50;;;9.81;98.62
45813;BME280;31519;45.408;10.962;2023-02-19T02:10:58;101567.50;;;9.92;98.02
45813;BME280;31519;45.408;10.962;2023-02-19T02:13:27;101566.16;;;9.95;97.51
45813;BME280;31519;45.408;10.962;2023-02-19T02:16:23;101557.84;;;10.06;97.39
45813;BME280;31519;45.408;10.962;2023-02-19T02:19:06;101551.78;;;9.96;97.32
45813;BME280;31519;45.408;10.962;2023-02-19T02:22:04;101553.47;;;9.76;98.48
45813;BME280;31519;45.408;10.962;2023-02-19T02:27:48;101552.75;;;9.51;100.00
45813;BME280;31519;45.408;10.962;2023-02-19T02:30:53;101554.34;;;9.57;100.00
45813;BME280;31519;45.408;10.962;2023-02-19T02:33:43;101551.16;;;9.50;100.00
45813;BME280;31519;45.408;10.962;2023-02-19T02:36:21;101550.66;;;9.48;99.96
45813;BME280;31519;45.408;10.962;2023-02-19T02:38:51;101549.06;;;9.42;100.00
45813;BME280;31519;45.408;10.962;2023-02-19T02:41:23;101545.63;;;9.36;100.00
45813;BME280;31519;45.408;10.962;2023-02-19T02:43:51;101542.16;;;9.41;100.00
45813;BME280;31519;45.408;10.962;2023-02-19T02:46:33;101539.22;;;9.42;100.00
45813;BME280;31519;45.408;10.962;2023-02-19T02:49:10;101553.34;;;9.38;100.00
45813;BME280;31519;45.408;10.962;2023-02-19T02:51:46;101545.09;;;9.29;100.00
45813;BME280;31519;45.408;10.962;2023-02-19T02:54:22;101547.25;;;9.17;100.00
45813;BME280;31519;45.408;10.962;2023-02-19T02:57:13;101549.06;;;9.47;100.00
45813;BME280;31519;45.408;10.962;2023-02-19T02:59:47;101538.69;;;9.40;99.90
45813;BME280;31519;45.408;10.962;2023-02-19T03:02:25;101556.81;;;9.18;100.00
45813;BME280;31519;45.408;10.962;2023-02-19T03:05:05;101542.19;;;9.25;100.00
45813;BME280;31519;45.408;10.962;2023-02-19T03:07:57;101548.28;;;9.26;100.00
45813;BME280;31519;45.408;10.962;2023-02-19T03:13:10;101544.56;;;9.37;100.00
45813;BME280;31519;45.408;10.962;2023-02-19T03:16:09;101543.00;;;9.16;100.00
45813;BME280;31519;45.408;10.962;2023-02-19T03:18:58;101545.94;;;9.19;100.00
45813;BME280;31519;45.408;10.962;2023-02-19T03:21:53;101543.53;;;9.08;100.00
45813;BME280;31519;45.408;10.962;2023-02-19T03:24:27;101536.91;;;9.05;100.00
45813;BME280;31519;45.408;10.962;2023-02-19T03:27:17;101528.13;;;9.05;100.00
45813;BME280;31519;45.408;10.962;2023-02-19T03:29:53;101528.38;;;9.23;100.00
45813;BME280;31519;45.408;10.962;2023-02-19T03:32:31;101536.09;;;9.20;100.00
45813;BME280;31519;45.408;10.962;2023-02-19T03:35:29;101537.38;;;9.32;100.00
45813;BME280;31519;45.408;10.962;2023-02-19T03:38:32;101540.38;;;8.96;100.00
45813;BME280;31519;45.408;10.962;2023-02-19T03:52:20;101538.00;;;8.89;100.00
45813;BME280;31519;45.408;10.962;2023-02-19T03:54:58;101533.75;;;8.93;100.00
45813;BME280;31519;45.408;10.962;2023-02-19T04:00:09;101544.31;;;9.18;100.00
45813;BME280;31519;45.408;10.962;2023-02-19T04:02:44;101550.44;;;9.14;100.00
45813;BME280;31519;45.408;10.962;2023-02-19T04:05:24;101547.78;;;8.99;100.00
45813;BME280;31519;45.408;10.962;2023-02-19T04:07:58;101551.00;;;9.06;100.00
45813;BME280;31519;45.408;10.962;2023-02-19T04:10:33;101545.69;;;8.90;100.00
45813;BME280;31519;45.408;10.962;2023-02-19T04:13:06;101535.03;;;9.16;100.00
45813;BME280;31519;45.408;10.962;2023-02-19T04:15:40;101548.28;;;9.26;100.00
45813;BME280;31519;45.408;10.962;2023-02-19T04:18:17;101549.69;;;8.98;100.00
45813;BME280;31519;45.408;10.962;2023-02-19T04:20:47;101548.59;;;9.19;100.00
45813;BME280;31519;45.408;10.962;2023-02-19T04:23:21;101554.19;;;8.98;100.00
45813;BME280;31519;45.408;10.962;2023-02-19T04:25:56;101546.22;;;8.82;100.00
45813;BME280;31519;45.408;10.962;2023-02-19T04:28:27;101545.69;;;8.80;100.00
45813;BME280;31519;45.408;10.962;2023-02-19T04:30:55;101553.13;;;8.94;100.00
45813;BME280;31519;45.408;10.962;2023-02-19T04:33:23;101547.28;;;8.71;100.00
45813;BME280;31519;45.408;10.962;2023-02-19T04:35:52;101542.78;;;8.57;100.00
45813;BME280;31519;45.408;10.962;2023-02-19T04:38:20;101539.81;;;8.48;100.00
45813;BME280;31519;45.408;10.962;2023-02-19T04:40:48;101537.97;;;8.49;100.00
45813;BME280;31519;45.408;10.962;2023-02-19T04:43:19;101532.13;;;8.47;100.00
45813;BME280;31519;45.408;10.962;2023-02-19T04:45:47;101538.50;;;8.71;100.00
45813;BME280;31519;45.408;10.962;2023-02-19T04:48:15;101536.13;;;8.54;100.00
45813;BME280;31519;45.408;10.962;2023-02-19T04:50:43;101530.00;;;8.43;100.00
45813;BME280;31519;45.408;10.962;2023-02-19T04:53:12;101531.88;;;8.43;100.00
45813;BME280;31519;45.408;10.962;2023-02-19T04:55:39;101527.38;;;8.38;100.00
45813;BME280;31519;45.408;10.962;2023-02-19T04:58:08;101519.13;;;8.60;100.00
45813;BME280;31519;45.408;10.962;2023-02-19T05:00:36;101518.59;;;8.63;100.00
45813;BME280;31519;45.408;10.962;2023-02-19T05:03:04;101518.06;;;8.92;100.00
45813;BME280;31519;45.408;10.962;2023-02-19T05:05:33;101518.34;;;8.75;100.00
45813;BME280;31519;45.408;10.962;2023-02-19T05:08:02;101512.22;;;8.79;100.00
45813;BME280;31519;45.408;10.962;2023-02-19T05:10:30;101509.56;;;8.79;100.00
45813;BME280;31519;45.408;10.962;2023-02-19T05:12:58;101516.75;;;8.69;100.00
45813;BME280;31519;45.408;10.962;2023-02-19T05:15:26;101509.56;;;8.39;100.00
45813;BME280;31519;45.408;10.962;2023-02-19T05:17:55;101494.44;;;8.50;100.00
45813;BME280;31519;45.408;10.962;2023-02-19T05:20:23;101497.91;;;8.60;100.00
45813;BME280;31519;45.408;10.962;2023-02-19T05:22:51;101497.84;;;9.01;100.00
45813;BME280;31519;45.408;10.962;2023-02-19T05:25:19;101506.41;;;8.52;100.00
45813;BME280;31519;45.408;10.962;2023-02-19T05:27:48;101505.03;;;8.34;100.00
45813;BME280;31519;45.408;10.962;2023-02-19T05:30:16;101499.38;;;8.00;100.00
45813;BME280;31519;45.408;10.962;2023-02-19T05:32:44;101499.75;;;8.55;100.00
45813;BME280;31519;45.408;10.962;2023-02-19T05:35:12;101504.53;;;8.48;100.00
45813;BME280;31519;45.408;10.962;2023-02-19T05:37:40;101497.63;;;8.52;100.00
45813;BME280;31519;45.408;10.962;2023-02-19T05:40:09;101496.28;;;8.39;100.00
45813;BME280;31519;45.408;10.962;2023-02-19T05:42:37;101502.38;;;8.39;100.00
45813;BME280;31519;45.408;10.962;2023-02-19T05:45:06;101492.53;;;8.25;100.00
45813;BME280;31519;45.408;10.962;2023-02-19T05:47:34;101497.63;;;8.36;100.00
45813;BME280;31519;45.408;10.962;2023-02-19T05:50:02;101495.50;;;8.33;100.00
45813;BME280;31519;45.408;10.962;2023-02-19T05:52:31;101488.25;;;8.14;100.00
45813;BME280;31519;45.408;10.962;2023-02-19T05:54:59;101486.94;;;8.26;100.00
45813;BME280;31519;45.408;10.962;2023-02-19T05:57:27;101483.50;;;8.16;100.00
45813;BME280;31519;45.408;10.962;2023-02-19T05:59:55;101488.28;;;8.24;100.00
45813;BME280;31519;45.408;10.962;2023-02-19T06:02:24;101493.56;;;8.14;100.00
45813;BME280;31519;45.408;10.962;2023-02-19T06:04:52;101491.72;;;8.19;100.00
45813;BME280;31519;45.408;10.962;2023-02-19T06:07:22;101481.09;;;8.14;100.00
45813;BME280;31519;45.408;10.962;2023-02-19T06:09:50;101482.66;;;7.95;100.00
45813;BME280;31519;45.408;10.962;2023-02-19T06:12:18;101492.53;;;8.20;100.00
45813;BME280;31519;45.408;10.962;2023-02-19T06:14:46;101490.72;;;8.40;100.00
45813;BME280;31519;45.408;10.962;2023-02-19T06:17:15;101490.47;;;8.52;100.00
45813;BME280;31519;45.408;10.962;2023-02-19T06:19:43;101495.44;;;8.23;100.00
45813;BME280;31519;45.408;10.962;2023-02-19T06:22:13;101479.84;;;8.42;100.00
45813;BME280;31519;45.408;10.962;2023-02-19T06:24:42;101476.38;;;8.52;100.00
45813;BME280;31519;45.408;10.962;2023-02-19T06:27:10;101480.34;;;8.74;100.00
45813;BME280;31519;45.408;10.962;2023-02-19T06:29:39;101470.50;;;8.90;100.00
45813;BME280;31519;45.408;10.962;2023-02-19T06:32:08;101469.94;;;9.03;100.00
45813;BME280;31519;45.408;10.962;2023-02-19T06:34:36;101477.88;;;9.13;100.00
45813;BME280;31519;45.408;10.962;2023-02-19T06:37:04;101474.72;;;9.01;100.00
45813;BME280;31519;45.408;10.962;2023-02-19T06:39:33;101468.03;;;9.19;100.00
45813;BME280;31519;45.408;10.962;2023-02-19T06:42:02;101468.31;;;9.12;100.00
45813;BME280;31519;45.408;10.962;2023-02-19T06:44:30;101470.38;;;9.30;100.00
45813;BME280;31519;45.408;10.962;2023-02-19T06:46:58;101472.72;;;9.47;100.00
45813;BME280;31519;45.408;10.962;2023-02-19T06:49:26;101480.72;;;9.47;100.00
45813;BME280;31519;45.408;10.962;2023-02-19T06:51:55;101478.25;;;9.61;100.00
45813;BME280;31519;45.408;10.962;2023-02-19T06:54:23;101486.47;;;9.69;100.00
45813;BME280;31519;45.408;10.962;2023-02-19T06:56:53;101480.88;;;9.71;100.00
45813;BME280;31519;45.408;10.962;2023-02-19T06:59:24;101488.22;;;9.89;100.00
45813;BME280;31519;45.408;10.962;2023-02-19T07:01:52;101486.91;;;9.82;100.00
45813;BME280;31519;45.408;10.962;2023-02-19T07:04:20;101479.69;;;9.92;100.00
45813;BME280;31519;45.408;10.962;2023-02-19T07:06:49;101480.88;;;10.15;100.00
45813;BME280;31519;45.408;10.962;2023-02-19T07:09:17;101478.78;;;10.17;100.00
45813;BME280;31519;45.408;10.962;2023-02-19T07:11:46;101476.25;;;10.36;100.00
45813;BME280;31519;45.408;10.962;2023-02-19T07:14:15;101479.44;;;10.33;100.00
45813;BME280;31519;45.408;10.962;2023-02-19T07:16:43;101473.69;;;10.20;100.00
45813;BME280;31519;45.408;10.962;2023-02-19T07:19:14;101468.97;;;10.41;100.00
45813;BME280;31519;45.408;10.962;2023-02-19T07:21:42;101470.31;;;10.44;100.00
45813;BME280;31519;45.408;10.962;2023-02-19T07:24:10;101480.81;;;10.59;100.00
45813;BME280;31519;45.408;10.962;2023-02-19T07:26:39;101478.44;;;10.57;100.00
45813;BME280;31519;45.408;10.962;2023-02-19T07:29:08;101468.59;;;10.58;100.00
45813;BME280;31519;45.408;10.962;2023-02-19T07:31:37;101473.16;;;10.52;100.00
45813;BME280;31519;45.408;10.962;2023-02-19T07:34:06;101476.69;;;10.43;100.00
45813;BME280;31519;45.408;10.962;2023-02-19T07:36:34;101478.38;;;10.34;100.00
45813;BME280;31519;45.408;10.962;2023-02-19T07:39:03;101474.19;;;10.22;100.00
45813;BME280;31519;45.408;10.962;2023-02-19T07:41:31;101461.59;;;10.33;100.00
45813;BME280;31519;45.408;10.962;2023-02-19T07:43:59;101474.56;;;10.74;100.00
45813;BME280;31519;45.408;10.962;2023-02-19T07:46:27;101474.59;;;10.40;100.00
45813;BME280;31519;45.408;10.962;2023-02-19T07:48:58;101470.13;;;10.64;100.00
45813;BME280;31519;45.408;10.962;2023-02-19T07:51:27;101464.84;;;10.59;100.00
45813;BME280;31519;45.408;10.962;2023-02-19T07:53:55;101464.25;;;10.33;100.00
45813;BME280;31519;45.408;10.962;2023-02-19T07:56:23;101458.78;;;9.70;100.00
45813;BME280;31519;45.408;10.962;2023-02-19T07:58:51;101452.78;;;9.40;100.00
45813;BME280;31519;45.408;10.962;2023-02-19T08:01:22;101469.88;;;9.23;100.00
45813;BME280;31519;45.408;10.962;2023-02-19T08:04:12;101467.59;;;8.81;100.00
45813;BME280;31519;45.408;10.962;2023-02-19T08:06:42;101476.38;;;8.47;100.00
45813;BME280;31519;45.408;10.962;2023-02-19T08:09:10;101471.31;;;8.75;100.00
45813;BME280;31519;45.408;10.962;2023-02-19T08:11:38;101480.34;;;8.64;100.00
45813;BME280;31519;45.408;10.962;2023-02-19T08:14:26;101485.13;;;8.67;100.00
45813;BME280;31519;45.408;10.962;2023-02-19T08:16:55;101473.44;;;8.68;100.00
45813;BME280;31519;45.408;10.962;2023-02-19T08:19:23;101484.34;;;8.57;100.00
45813;BME280;31519;45.408;10.962;2023-02-19T08:21:52;101480.28;;;9.20;100.00
45813;BME280;31519;45.408;10.962;2023-02-19T08:24:20;101486.91;;;9.17;100.00
45813;BME280;31519;45.408;10.962;2023-02-19T08:26:49;101493.00;;;9.28;100.00
45813;BME280;31519;45.408;10.962;2023-02-19T08:29:17;101476.28;;;9.17;100.00
45813;BME280;31519;45.408;10.962;2023-02-19T08:31:45;101483.25;;;8.98;100.00
45813;BME280;31519;45.408;10.962;2023-02-19T08:34:14;101495.75;;;8.62;100.00
45813;BME280;31519;45.408;10.962;2023-02-19T08:36:42;101475.31;;;8.73;100.00
45813;BME280;31519;45.408;10.962;2023-02-19T08:39:11;101485.16;;;8.42;100.00
45813;BME280;31519;45.408;10.962;2023-02-19T08:41:39;101490.13;;;8.94;100.00
45813;BME280;31519;45.408;10.962;2023-02-19T08:44:07;101486.47;;;8.39;100.00
45813;BME280;31519;45.408;10.962;2023-02-19T08:46:36;101495.19;;;9.01;100.00
45813;BME280;31519;45.408;10.962;2023-02-19T08:49:04;101498.94;;;8.69;100.00
45813;BME280;31519;45.408;10.962;2023-02-19T08:51:32;101496.75;;;9.17;100.00
45813;BME280;31519;45.408;10.962;2023-02-19T08:54:02;101486.97;;;8.97;100.00
45813;BME280;31519;45.408;10.962;2023-02-19T08:56:31;101472.09;;;8.91;100.00
45813;BME280;31519;45.408;10.962;2023-02-19T08:58:59;101470.72;;;9.04;100.00
45813;BME280;31519;45.408;10.962;2023-02-19T09:01:27;101463.84;;;8.93;100.00
45813;BME280;31519;45.408;10.962;2023-02-19T09:03:55;101467.63;;;9.61;100.00
45813;BME280;31519;45.408;10.962;2023-02-19T09:06:24;101466.00;;;9.60;100.00
45813;BME280;31519;45.408;10.962;2023-02-19T09:08:52;101462.16;;;9.81;100.00
45813;BME280;31519;45.408;10.962;2023-02-19T09:11:20;101466.41;;;9.87;100.00
45813;BME280;31519;45.408;10.962;2023-02-19T09:13:48;101466.28;;;10.07;100.00
45813;BME280;31519;45.408;10.962;2023-02-19T09:16:17;101475.81;;;10.18;100.00
45813;BME280;31519;45.408;10.962;2023-02-19T09:18:45;101466.16;;;9.84;100.00
45813;BME280;31519;45.408;10.962;2023-02-19T09:21:13;101465.50;;;10.07;100.00
45813;BME280;31519;45.408;10.962;2023-02-19T09:23:41;101463.75;;;9.87;100.00
45813;BME280;31519;45.408;10.962;2023-02-19T09:26:09;101459.63;;;10.05;100.00
45813;BME280;31519;45.408;10.962;2023-02-19T09:28:38;101459.84;;;9.69;100.00
45813;BME280;31519;45.408;10.962;2023-02-19T09:31:13;101457.34;;;9.88;100.00
45813;BME280;31519;45.408;10.962;2023-02-19T09:33:43;101457.94;;;9.80;100.00
45813;BME280;31519;45.408;10.962;2023-02-19T09:36:13;101457.94;;;9.80;100.00
45813;BME280;31519;45.408;10.962;2023-02-19T09:38:42;101463.34;;;9.65;100.00
45813;BME280;31519;45.408;10.962;2023-02-19T09:41:29;101472.38;;;9.64;100.00
45813;BME280;31519;45.408;10.962;2023-02-19T09:43:59;101481.31;;;9.88;100.00
45813;BME280;31519;45.408;10.962;2023-02-19T09:46:34;101478.56;;;10.03;100.00
45813;BME280;31519;45.408;10.962;2023-02-19T09:49:06;101479.16;;;9.90;100.00
45813;BME280;31519;45.408;10.962;2023-02-19T09:51:41;101466.75;;;10.19;100.00
45813;BME280;31519;45.408;10.962;2023-02-19T09:54:20;101468.81;;;10.28;100.00
45813;BME280;31519;45.408;10.962;2023-02-19T09:56:52;101467.66;;;10.44;100.00
45813;BME280;31519;45.408;10.962;2023-02-19T09:59:25;101471.06;;;10.15;100.00
45813;BME280;31519;45.408;10.962;2023-02-19T10:02:12;101465.69;;;10.20;100.00
45813;BME280;31519;45.408;10.962;2023-02-19T10:04:42;101470.50;;;10.52;100.00
45813;BME280;31519;45.408;10.962;2023-02-19T10:07:17;101469.16;;;10.21;100.00
45813;BME280;31519;45.408;10.962;2023-02-19T10:09:52;101466.06;;;10.72;100.00
45813;BME280;31519;45.408;10.962;2023-02-19T10:12:29;101471.53;;;10.56;100.00
45813;BME280;31519;45.408;10.962;2023-02-19T10:15:09;101473.81;;;10.68;100.00
45813;BME280;31519;45.408;10.962;2023-02-19T10:17:39;101479.38;;;10.43;100.00
45813;BME280;31519;45.408;10.962;2023-02-19T10:20:14;101473.78;;;10.73;100.00
45813;BME280;31519;45.408;10.962;2023-02-19T10:22:43;101472.41;;;11.28;100.00
45813;BME280;31519;45.408;10.962;2023-02-19T10:25:15;101469.94;;;10.84;100.00
45813;BME280;31519;45.408;10.962;2023-02-19T10:27:44;101475.56;;;11.54;100.00
45813;BME280;31519;45.408;10.962;2023-02-19T10:30:21;101468.38;;;11.54;100.00
45813;BME280;31519;45.408;10.962;2023-02-19T10:33:23;101463.38;;;11.48;100.00
45813;BME280;31519;45.408;10.962;2023-02-19T10:35:59;101462.63;;;11.19;100.00
45813;BME280;31519;45.408;10.962;2023-02-19T10:38:30;101463.09;;;11.26;100.00
45813;BME280;31519;45.408;10.962;2023-02-19T10:41:11;101459.06;;;11.71;100.00
45813;BME280;31519;45.408;10.962;2023-02-19T10:43:44;101453.03;;;11.41;100.00
45813;BME280;31519;45.408;10.962;2023-02-19T10:46:20;101457.31;;;11.61;100.00
45813;BME280;31519;45.408;10.962;2023-02-19T10:48:58;101459.06;;;11.71;100.00
45813;BME280;31519;45.408;10.962;2023-02-19T10:51:35;101464.16;;;11.91;100.00
45813;BME280;31519;45.408;10.962;2023-02-19T10:54:24;101464.09;;;12.28;99.04
45813;BME280;31519;45.408;10.962;2023-02-19T10:56:53;101459.59;;;12.42;96.65
45813;BME280;31519;45.408;10.962;2023-02-19T10:59:27;101459.44;;;12.53;95.99
45813;BME280;31519;45.408;10.962;2023-02-19T11:02:00;101448.88;;;12.29;97.00
45813;BME280;31519;45.408;10.962;2023-02-19T11:04:31;101453.03;;;12.21;97.26
45813;BME280;31519;45.408;10.962;2023-02-19T11:07:14;101446.28;;;12.24;95.78
45813;BME280;31519;45.408;10.962;2023-02-19T11:09:46;101438.91;;;12.67;94.73
45813;BME280;31519;45.408;10.962;2023-02-19T11:12:24;101435.03;;;12.59;93.76
45813;BME280;31519;45.408;10.962;2023-02-19T11:14:54;101435.97;;;13.37;90.61
45813;BME280;31519;45.408;10.962;2023-02-19T11:17:27;101439.34;;;13.01;91.34
45813;BME280;31519;45.408;10.962;2023-02-19T11:19:59;101425.94;;;13.56;88.43
45813;BME280;31519;45.408;10.962;2023-02-19T11:22:34;101420.16;;;14.20;85.01
45813;BME280;31519;45.408;10.962;2023-02-19T11:25:17;101418.78;;;14.32;83.18
45813;BME280;31519;45.408;10.962;2023-02-19T11:28:00;101414.94;;;14.38;82.70
45813;BME280;31519;45.408;10.962;2023-02-19T11:30:42;101413.22;;;14.19;82.69
45813;BME280;31519;45.408;10.962;2023-02-19T11:33:24;101407.97;;;13.70;84.82
45813;BME280;31519;45.408;10.962;2023-02-19T11:36:46;101398.56;;;13.59;85.60
45813;BME280;31519;45.408;10.962;2023-02-19T11:38:48;101392.31;;;13.86;85.50
45813;BME280;31519;45.408;10.962;2023-02-19T11:47:53;101378.44;;;13.48;86.59
45813;BME280;31519;45.408;10.962;2023-02-19T11:51:04;101384.34;;;12.95;88.81
45813;BME280;31519;45.408;10.962;2023-02-19T11:53:30;101386.53;;;13.20;89.88
45813;BME280;31519;45.408;10.962;2023-02-19T11:56:20;101378.63;;;14.09;84.02
45813;BME280;31519;45.408;10.962;2023-02-19T11:59:10;101382.00;;;14.46;82.55
45813;BME280;31519;45.408;10.962;2023-02-19T12:13:49;101353.72;;;15.87;73.20
45813;BME280;31519;45.408;10.962;2023-02-19T12:19:12;101336.78;;;16.13;71.45
45813;BME280;31519;45.408;10.962;2023-02-19T12:25:01;101347.69;;;16.63;68.66
45813;BME280;31519;45.408;10.962;2023-02-19T12:28:08;101334.06;;;16.68;68.06
45813;BME280;31519;45.408;10.962;2023-02-19T12:44:51;101303.19;;;17.57;62.86
45813;BME280;31519;45.408;10.962;2023-02-19T12:47:24;101307.88;;;17.48;63.91
45813;BME280;31519;45.408;10.962;2023-02-19T12:50:08;101308.41;;;17.95;62.65
45813;BME280;31519;45.408;10.962;2023-02-19T12:52:47;101311.97;;;17.87;61.50
45813;BME280;31519;45.408;10.962;2023-02-19T12:55:23;101303.41;;;17.85;61.63
45813;BME280;31519;45.408;10.962;2023-02-19T12:57:54;101295.22;;;17.81;61.92
45813;BME280;31519;45.408;10.962;2023-02-19T13:05:56;101296.41;;;17.18;64.13
45813;BME280;31519;45.408;10.962;2023-02-19T13:11:21;101283.78;;;16.51;64.91
45813;BME280;31519;45.408;10.962;2023-02-19T13:13:55;101282.34;;;16.62;66.43
45813;BME280;31519;45.408;10.962;2023-02-19T13:16:28;101274.41;;;16.28;66.93
45813;BME280;31519;45.408;10.962;2023-02-19T13:19:02;101278.84;;;17.33;64.63
45813;BME280;31519;45.408;10.962;2023-02-19T13:21:33;101273.50;;;18.35;60.44
45813;BME280;31519;45.408;10.962;2023-02-19T13:24:36;101274.84;;;18.16;59.76
45813;BME280;31519;45.408;10.962;2023-02-19T13:38:28;101262.16;;;18.05;60.16
45813;BME280;31519;45.408;10.962;2023-02-19T13:40:58;101255.28;;;17.95;60.92
45813;BME280;31519;45.408;10.962;2023-02-19T13:43:30;101256.66;;;19.14;57.43
45813;BME280;31519;45.408;10.962;2023-02-19T13:46:09;101256.81;;;19.06;56.70
45813;BME280;31519;45.408;10.962;2023-02-19T13:48:40;101259.66;;;18.24;59.71
45813;BME280;31519;45.408;10.962;2023-02-19T13:53:58;101256.66;;;18.13;59.51
45813;BME280;31519;45.408;10.962;2023-02-19T14:14:36;101255.84;;;18.86;57.94
45813;BME280;31519;45.408;10.962;2023-02-19T14:30:45;101247.06;;;16.55;66.08
45813;BME280;31519;45.408;10.962;2023-02-19T14:33:15;101251.94;;;17.65;62.72
45813;BME280;31519;45.408;10.962;2023-02-19T14:35:46;101242.22;;;17.52;62.81
45813;BME280;31519;45.408;10.962;2023-02-19T14:38:20;101251.81;;;17.62;62.19
45813;BME280;31519;45.408;10.962;2023-02-19T14:40:49;101253.28;;;17.59;61.89
45813;BME280;31519;45.408;10.962;2023-02-19T14:43:21;101247.94;;;17.18;62.93
45813;BME280;31519;45.408;10.962;2023-02-19T14:48:29;101237.44;;;17.04;63.86
45813;BME280;31519;45.408;10.962;2023-02-19T14:51:07;101240.69;;;16.68;65.13
45813;BME280;31519;45.408;10.962;2023-02-19T14:53:42;101238.06;;;16.51;66.38
45813;BME280;31519;45.408;10.962;2023-02-19T14:56:20;101232.63;;;16.39;67.24
45813;BME280;31519;45.408;10.962;2023-02-19T15:01:36;101240.38;;;16.40;67.50
45813;BME280;31519;45.408;10.962;2023-02-19T15:04:05;101243.25;;;16.27;68.26
45813;BME280;31519;45.408;10.962;2023-02-19T15:06:34;101238.00;;;16.39;68.22